sensor_id;sensor_type;location;lat;lon;timestamp;pressure;altitude;pressure_sealevel;temperature;humidity
19259;BME280;9763;48.780;9.212;2023-04-01T00:00:46;97071.47;;;12.38;74.63
19259;BME280;9763;48.780;9.212;2023-04-01T00:04:11;97064.59;;;12.37;74.08
19259;BME280;9763;48.780;9.212;2023-04-01T00:07:36;97063.34;;;12.41;74.42
19259;BME280;9763;48.780;9.212;2023-04-01T00:11:00;97068.28;;;12.44;74.58
19259;BME280;9763;48.780;9.212;2023-04-01T00:14:25;97067.03;;;12.48;73.99
19259;BME280;9763;48.780;9.212;2023-04-01T00:17:51;97071.00;;;12.52;74.46
19259;BME280;9763;48.780;9.212;2023-04-01T00:21:16;97061.38;;;12.52;73.65
19259;BME280;9763;48.780;9.212;2023-04-01T00:24:40;97064.66;;;12.54;73.82
19259;BME280;9763;48.780;9.212;2023-04-01T00:28:04;97058.63;;;12.54;74.21
19259;BME280;9763;48.780;9.212;2023-04-01T00:31:28;97060.81;;;12.49;74.07
19259;BME280;9763;48.780;9.212;2023-04-01T00:34:53;97061.94;;;12.46;74.14
19259;BME280;9763;48.780;9.212;2023-04-01T00:38:17;97059.91;;;12.40;74.13
19259;BME280;9763;48.780;9.212;2023-04-01T00:41:41;97069.56;;;12.40;73.73
19259;BME280;9763;48.780;9.212;2023-04-01T00:45:27;97067.91;;;12.39;73.60
19259;BME280;9763;48.780;9.212;2023-04-01T00:48:55;97076.72;;;12.38;74.29
19259;BME280;9763;48.780;9.212;2023-04-01T00:52:22;97049.75;;;12.27;73.56
19259;BME280;9763;48.780;9.212;2023-04-01T00:55:54;97062.25;;;12.34;73.63
19259;BME280;9763;48.780;9.212;2023-04-01T00:59:22;97069.59;;;12.20;74.49
19259;BME280;9763;48.780;9.212;2023-04-01T01:02:47;97075.13;;;12.17;74.48
19259;BME280;9763;48.780;9.212;2023-04-01T01:06:30;97078.44;;;12.19;74.45
19259;BME280;9763;48.780;9.212;2023-04-01T01:10:09;97077.91;;;12.16;75.17
19259;BME280;9763;48.780;9.212;2023-04-01T01:13:41;97065.09;;;12.13;75.16
19259;BME280;9763;48.780;9.212;2023-04-01T01:17:16;97062.25;;;12.06;75.99
19259;BME280;9763;48.780;9.212;2023-04-01T01:21:26;97057.84;;;11.97;76.48
19259;BME280;9763;48.780;9.212;2023-04-01T01:25:23;97056.19;;;11.96;77.05
19259;BME280;9763;48.780;9.212;2023-04-01T01:29:00;97065.03;;;11.95;77.22
19259;BME280;9763;48.780;9.212;2023-04-01T01:33:11;97065.69;;;11.97;78.37
19259;BME280;9763;48.780;9.212;2023-04-01T01:36:38;97061.56;;;11.95;78.21
19259;BME280;9763;48.780;9.212;2023-04-01T01:40:10;97061.72;;;11.93;77.80
19259;BME280;9763;48.780;9.212;2023-04-01T01:43:40;97060.75;;;11.94;77.71
19259;BME280;9763;48.780;9.212;2023-04-01T01:47:07;97069.56;;;11.93;78.13
19259;BME280;9763;48.780;9.212;2023-04-01T01:50:32;97065.16;;;11.94;77.74
19259;BME280;9763;48.780;9.212;2023-04-01T01:53:57;97065.56;;;11.89;77.79
19259;BME280;9763;48.780;9.212;2023-04-01T01:57:24;97068.88;;;11.91;78.35
19259;BME280;9763;48.780;9.212;2023-04-01T02:00:56;97053.06;;;11.83;77.71
19259;BME280;9763;48.780;9.212;2023-04-01T02:04:21;97060.22;;;11.81;78.64
19259;BME280;9763;48.780;9.212;2023-04-01T02:07:54;97055.13;;;11.79;78.34
19259;BME280;9763;48.780;9.212;2023-04-01T02:11:29;97058.84;;;11.77;78.56
19259;BME280;9763;48.780;9.212;2023-04-01T02:14:57;97054.97;;;11.71;78.24
19259;BME280;9763;48.780;9.212;2023-04-01T02:18:23;97062.41;;;11.66;78.98
19259;BME280;9763;48.780;9.212;2023-04-01T02:21:47;97068.59;;;11.65;78.66
19259;BME280;9763;48.780;9.212;2023-04-01T02:25:13;97066.81;;;11.66;79.53
19259;BME280;9763;48.780;9.212;2023-04-01T02:28:40;97063.25;;;11.67;79.45
19259;BME280;9763;48.780;9.212;2023-04-01T02:32:06;97071.09;;;11.67;78.67
19259;BME280;9763;48.780;9.212;2023-04-01T02:35:31;97065.84;;;11.67;79.31
19259;BME280;9763;48.780;9.212;2023-04-01T02:38:57;97069.16;;;11.69;79.69
19259;BME280;9763;48.780;9.212;2023-04-01T02:42:24;97062.41;;;11.66;79.30
19259;BME280;9763;48.780;9.212;2023-04-01T02:45:49;97064.22;;;11.56;78.80
19259;BME280;9763;48.780;9.212;2023-04-01T02:49:12;97073.69;;;11.47;78.95
19259;BME280;9763;48.780;9.212;2023-04-01T02:52:36;97076.19;;;11.39;78.96
19259;BME280;9763;48.780;9.212;2023-04-01T02:56:00;97067.66;;;11.37;79.12
19259;BME280;9763;48.780;9.212;2023-04-01T02:59:24;97066.00;;;11.36;79.21
19259;BME280;9763;48.780;9.212;2023-04-01T03:02:49;97061.06;;;11.33;78.67
19259;BME280;9763;48.780;9.212;2023-04-01T03:06:15;97065.34;;;11.34;79.10
19259;BME280;9763;48.780;9.212;2023-04-01T03:09:39;97066.56;;;11.30;78.74
19259;BME280;9763;48.780;9.212;2023-04-01T03:13:03;97069.44;;;11.27;78.90
19259;BME280;9763;48.780;9.212;2023-04-01T03:16:27;97064.34;;;11.26;79.41
19259;BME280;9763;48.780;9.212;2023-04-01T03:19:52;97067.66;;;11.28;78.90
19259;BME280;9763;48.780;9.212;2023-04-01T03:23:16;97067.53;;;11.29;78.90
19259;BME280;9763;48.780;9.212;2023-04-01T03:26:42;97062.56;;;11.26;79.18
19259;BME280;9763;48.780;9.212;2023-04-01T03:30:07;97070.81;;;11.22;79.23
19259;BME280;9763;48.780;9.212;2023-04-01T03:33:40;97071.91;;;11.19;79.33
19259;BME280;9763;48.780;9.212;2023-04-01T03:37:05;97069.19;;;11.21;79.19
19259;BME280;9763;48.780;9.212;2023-04-01T03:40:28;97073.28;;;11.23;79.40
19259;BME280;9763;48.780;9.212;2023-04-01T03:43:53;97070.25;;;11.28;79.94
19259;BME280;9763;48.780;9.212;2023-04-01T03:47:17;97069.72;;;11.34;79.68
19259;BME280;9763;48.780;9.212;2023-04-01T03:50:41;97079.34;;;11.43;80.25
19259;BME280;9763;48.780;9.212;2023-04-01T03:54:06;97068.75;;;11.54;79.78
19259;BME280;9763;48.780;9.212;2023-04-01T03:57:31;97060.75;;;11.65;80.03
19259;BME280;9763;48.780;9.212;2023-04-01T04:01:03;97049.06;;;11.69;79.37
19259;BME280;9763;48.780;9.212;2023-04-01T04:04:36;97056.38;;;11.66;78.79
19259;BME280;9763;48.780;9.212;2023-04-01T04:08:00;97054.03;;;11.63;78.24
19259;BME280;9763;48.780;9.212;2023-04-01T04:11:25;97055.56;;;11.55;78.02
19259;BME280;9763;48.780;9.212;2023-04-01T04:14:49;97050.72;;;11.51;78.43
19259;BME280;9763;48.780;9.212;2023-04-01T04:18:13;97045.94;;;11.46;77.90
19259;BME280;9763;48.780;9.212;2023-04-01T04:21:36;97048.00;;;11.43;77.88
19259;BME280;9763;48.780;9.212;2023-04-01T04:25:00;97048.97;;;11.42;78.17
19259;BME280;9763;48.780;9.212;2023-04-01T04:28:27;97054.44;;;11.39;78.18
19259;BME280;9763;48.780;9.212;2023-04-01T04:31:52;97045.41;;;11.33;77.91
19259;BME280;9763;48.780;9.212;2023-04-01T04:35:17;97045.81;;;11.29;77.93
19259;BME280;9763;48.780;9.212;2023-04-01T04:38:41;97047.84;;;11.25;77.41
19259;BME280;9763;48.780;9.212;2023-04-01T04:42:05;97052.38;;;11.23;77.24
19259;BME280;9763;48.780;9.212;2023-04-01T04:45:30;97046.50;;;11.21;77.56
19259;BME280;9763;48.780;9.212;2023-04-01T04:48:55;97052.94;;;11.17;77.15
19259;BME280;9763;48.780;9.212;2023-04-01T04:52:18;97045.09;;;11.17;77.74
19259;BME280;9763;48.780;9.212;2023-04-01T04:55:47;97049.25;;;11.19;76.93
19259;BME280;9763;48.780;9.212;2023-04-01T04:59:30;97044.84;;;11.20;77.33
19259;BME280;9763;48.780;9.212;2023-04-01T05:03:03;97037.28;;;11.17;76.75
19259;BME280;9763;48.780;9.212;2023-04-01T05:06:27;97036.44;;;11.16;77.44
19259;BME280;9763;48.780;9.212;2023-04-01T05:09:52;97031.50;;;11.13;77.41
19259;BME280;9763;48.780;9.212;2023-04-01T05:13:16;97031.78;;;11.10;76.96
19259;BME280;9763;48.780;9.212;2023-04-01T05:16:41;97023.53;;;11.15;76.72
19259;BME280;9763;48.780;9.212;2023-04-01T05:20:08;97024.91;;;11.19;76.92
19259;BME280;9763;48.780;9.212;2023-04-01T05:23:32;97018.44;;;11.23;76.80
19259;BME280;9763;48.780;9.212;2023-04-01T05:26:56;97019.53;;;11.30;76.83
19259;BME280;9763;48.780;9.212;2023-04-01T05:30:20;97015.00;;;11.32;77.21
19259;BME280;9763;48.780;9.212;2023-04-01T05:33:56;97007.16;;;11.42;76.88
19259;BME280;9763;48.780;9.212;2023-04-01T05:37:21;97018.69;;;11.49;77.20
19259;BME280;9763;48.780;9.212;2023-04-01T05:40:45;97015.41;;;11.57;76.68
19259;BME280;9763;48.780;9.212;2023-04-01T05:44:12;97019.38;;;11.70;76.39
19259;BME280;9763;48.780;9.212;2023-04-01T05:47:35;97016.63;;;11.81;76.26
19259;BME280;9763;48.780;9.212;2023-04-01T05:50:59;97008.75;;;11.91;76.63
19259;BME280;9763;48.780;9.212;2023-04-01T05:54:25;97007.88;;;12.00;76.44
19259;BME280;9763;48.780;9.212;2023-04-01T05:57:49;97001.63;;;12.11;76.23
19259;BME280;9763;48.780;9.212;2023-04-01T06:01:13;96999.81;;;12.21;75.92
19259;BME280;9763;48.780;9.212;2023-04-01T06:04:39;97004.19;;;12.30;75.39
19259;BME280;9763;48.780;9.212;2023-04-01T06:08:11;96991.47;;;12.35;76.46
19259;BME280;9763;48.780;9.212;2023-04-01T06:11:55;96978.44;;;12.53;75.39
19259;BME280;9763;48.780;9.212;2023-04-01T06:15:33;96977.78;;;12.69;75.27
19259;BME280;9763;48.780;9.212;2023-04-01T06:19:24;96980.56;;;12.85;75.45
19259;BME280;9763;48.780;9.212;2023-04-01T06:23:23;96983.84;;;13.05;75.25
19259;BME280;9763;48.780;9.212;2023-04-01T06:27:05;96981.41;;;13.21;74.53
19259;BME280;9763;48.780;9.212;2023-04-01T06:30:42;96988.22;;;13.31;74.75
19259;BME280;9763;48.780;9.212;2023-04-01T06:34:37;96981.59;;;13.45;74.20
19259;BME280;9763;48.780;9.212;2023-04-01T06:38:36;96994.97;;;13.60;73.88
19259;BME280;9763;48.780;9.212;2023-04-01T06:42:34;96985.19;;;13.62;73.77
19259;BME280;9763;48.780;9.212;2023-04-01T06:46:12;96997.94;;;13.65;73.95
19259;BME280;9763;48.780;9.212;2023-04-01T06:50:07;97004.19;;;13.64;73.36
19259;BME280;9763;48.780;9.212;2023-04-01T06:54:10;96999.19;;;13.53;72.80
19259;BME280;9763;48.780;9.212;2023-04-01T06:58:20;96989.03;;;13.50;72.66
19259;BME280;9763;48.780;9.212;2023-04-01T07:01:49;96988.41;;;13.56;72.55
19259;BME280;9763;48.780;9.212;2023-04-01T07:05:15;96997.94;;;13.65;72.63
19259;BME280;9763;48.780;9.212;2023-04-01T07:08:42;97000.81;;;13.72;72.83
19259;BME280;9763;48.780;9.212;2023-04-01T07:12:19;96999.34;;;13.77;72.52
19259;BME280;9763;48.780;9.212;2023-04-01T07:16:12;96998.28;;;13.88;72.25
19259;BME280;9763;48.780;9.212;2023-04-01T07:19:45;97004.41;;;13.96;72.88
19259;BME280;9763;48.780;9.212;2023-04-01T07:23:21;97002.94;;;14.02;72.37
19259;BME280;9763;48.780;9.212;2023-04-01T07:27:11;97016.06;;;14.02;72.22
19259;BME280;9763;48.780;9.212;2023-04-01T07:30:52;97021.41;;;13.92;71.82
19259;BME280;9763;48.780;9.212;2023-04-01T07:34:27;97010.34;;;13.81;72.08
19259;BME280;9763;48.780;9.212;2023-04-01T07:38:09;97019.44;;;13.86;71.84
19259;BME280;9763;48.780;9.212;2023-04-01T07:41:49;97015.97;;;13.86;71.99
19259;BME280;9763;48.780;9.212;2023-04-01T07:45:23;97024.16;;;13.83;72.14
19259;BME280;9763;48.780;9.212;2023-04-01T07:48:56;97018.06;;;13.82;72.08
19259;BME280;9763;48.780;9.212;2023-04-01T07:52:32;97009.09;;;13.85;71.11
19259;BME280;9763;48.780;9.212;2023-04-01T07:56:10;97033.22;;;13.88;71.42
19259;BME280;9763;48.780;9.212;2023-04-01T07:59:47;97025.16;;;13.90;70.97
19259;BME280;9763;48.780;9.212;2023-04-01T08:03:36;97007.44;;;13.84;70.60
19259;BME280;9763;48.780;9.212;2023-04-01T08:07:10;97010.31;;;13.98;70.98
19259;BME280;9763;48.780;9.212;2023-04-01T08:10:55;97019.72;;;14.09;71.29
19259;BME280;9763;48.780;9.212;2023-04-01T08:14:56;97020.06;;;14.14;70.94
19259;BME280;9763;48.780;9.212;2023-04-01T08:18:58;97013.97;;;14.14;70.81
19259;BME280;9763;48.780;9.212;2023-04-01T08:22:30;97017.66;;;14.21;71.09
19259;BME280;9763;48.780;9.212;2023-04-01T08:26:04;97023.88;;;14.20;69.64
19259;BME280;9763;48.780;9.212;2023-04-01T08:29:41;97030.78;;;14.29;70.41
19259;BME280;9763;48.780;9.212;2023-04-01T08:33:15;97021.69;;;14.41;69.99
19259;BME280;9763;48.780;9.212;2023-04-01T08:36:47;97024.00;;;14.44;70.70
19259;BME280;9763;48.780;9.212;2023-04-01T08:40:39;97037.25;;;14.34;70.12
19259;BME280;9763;48.780;9.212;2023-04-01T08:44:37;97042.69;;;14.15;70.43
19259;BME280;9763;48.780;9.212;2023-04-01T08:48:45;97044.44;;;13.81;71.21
19259;BME280;9763;48.780;9.212;2023-04-01T08:52:28;97046.22;;;13.54;72.71
19259;BME280;9763;48.780;9.212;2023-04-01T08:56:11;97040.47;;;13.33;73.30
19259;BME280;9763;48.780;9.212;2023-04-01T08:59:57;97024.78;;;13.06;74.32
19259;BME280;9763;48.780;9.212;2023-04-01T09:04:05;97028.38;;;12.87;74.75
19259;BME280;9763;48.780;9.212;2023-04-01T09:07:46;97019.38;;;12.72;75.33
19259;BME280;9763;48.780;9.212;2023-04-01T09:11:34;97029.75;;;12.63;76.51
19259;BME280;9763;48.780;9.212;2023-04-01T09:15:53;97038.63;;;12.53;76.93
19259;BME280;9763;48.780;9.212;2023-04-01T09:19:37;97036.03;;;12.53;77.16
19259;BME280;9763;48.780;9.212;2023-04-01T09:23:29;97037.91;;;12.60;77.70
19259;BME280;9763;48.780;9.212;2023-04-01T09:27:05;97035.91;;;12.72;78.26
19259;BME280;9763;48.780;9.212;2023-04-01T09:30:48;97039.97;;;12.84;77.82
19259;BME280;9763;48.780;9.212;2023-04-01T09:38:28;97038.53;;;13.17;78.88
19259;BME280;9763;48.780;9.212;2023-04-01T09:42:07;97047.94;;;13.46;78.96
19259;BME280;9763;48.780;9.212;2023-04-01T09:46:05;97049.47;;;13.48;77.43
19259;BME280;9763;48.780;9.212;2023-04-01T09:50:00;97046.09;;;13.38;77.16
19259;BME280;9763;48.780;9.212;2023-04-01T09:53:48;97048.63;;;13.30;77.16
19259;BME280;9763;48.780;9.212;2023-04-01T09:57:52;97045.34;;;13.28;77.94
19259;BME280;9763;48.780;9.212;2023-04-01T10:02:08;97048.28;;;13.25;78.01
19259;BME280;9763;48.780;9.212;2023-04-01T10:10:46;97057.38;;;13.21;78.11
19259;BME280;9763;48.780;9.212;2023-04-01T10:14:37;97058.91;;;13.23;78.10
19259;BME280;9763;48.780;9.212;2023-04-01T10:18:59;97055.88;;;13.18;77.85
19259;BME280;9763;48.780;9.212;2023-04-01T10:23:11;97057.63;;;13.27;77.40
19259;BME280;9763;48.780;9.212;2023-04-01T10:32:31;97063.63;;;13.81;78.70
19259;BME280;9763;48.780;9.212;2023-04-01T10:36:40;97050.69;;;14.05;79.54
19259;BME280;9763;48.780;9.212;2023-04-01T10:40:48;97067.97;;;14.16;78.01
19259;BME280;9763;48.780;9.212;2023-04-01T10:45:28;97061.41;;;14.12;77.28
19259;BME280;9763;48.780;9.212;2023-04-01T10:58:16;97054.66;;;14.10;76.72
19259;BME280;9763;48.780;9.212;2023-04-01T11:02:59;97065.81;;;14.12;76.72
19259;BME280;9763;48.780;9.212;2023-04-01T11:07:48;97059.91;;;14.10;76.62
19259;BME280;9763;48.780;9.212;2023-04-01T11:12:06;97041.16;;;14.30;77.19
19259;BME280;9763;48.780;9.212;2023-04-01T11:20:28;97071.69;;;15.07;74.34
19259;BME280;9763;48.780;9.212;2023-04-01T11:24:16;97066.34;;;15.74;72.03
19259;BME280;9763;48.780;9.212;2023-04-01T11:28:27;97057.41;;;16.24;70.33
19259;BME280;9763;48.780;9.212;2023-04-01T11:32:19;97051.53;;;16.61;70.36
19259;BME280;9763;48.780;9.212;2023-04-01T11:36:11;97059.00;;;17.19;68.78
19259;BME280;9763;48.780;9.212;2023-04-01T11:39:56;97071.28;;;17.80;67.55
19259;BME280;9763;48.780;9.212;2023-04-01T11:43:54;97071.28;;;18.18;65.32
19259;BME280;9763;48.780;9.212;2023-04-01T11:48:09;97073.22;;;18.53;64.38
19259;BME280;9763;48.780;9.212;2023-04-01T11:52:05;97070.06;;;18.58;63.56
19259;BME280;9763;48.780;9.212;2023-04-01T11:55:50;97077.00;;;18.36;64.36
19259;BME280;9763;48.780;9.212;2023-04-01T12:00:04;97085.34;;;17.95;62.78
19259;BME280;9763;48.780;9.212;2023-04-01T12:04:04;97083.06;;;17.47;62.88
19259;BME280;9763;48.780;9.212;2023-04-01T12:08:06;97099.50;;;16.95;64.92
19259;BME280;9763;48.780;9.212;2023-04-01T12:11:43;97106.38;;;16.49;64.86
19259;BME280;9763;48.780;9.212;2023-04-01T12:15:22;97090.66;;;16.16;64.55
19259;BME280;9763;48.780;9.212;2023-04-01T12:18:58;97100.53;;;15.98;64.75
19259;BME280;9763;48.780;9.212;2023-04-01T12:22:43;97099.53;;;15.83;66.34
19259;BME280;9763;48.780;9.212;2023-04-01T12:26:54;97097.91;;;15.58;66.41
19259;BME280;9763;48.780;9.212;2023-04-01T12:30:49;97103.13;;;15.33;66.54
19259;BME280;9763;48.780;9.212;2023-04-01T12:34:39;97093.88;;;15.21;67.04
19259;BME280;9763;48.780;9.212;2023-04-01T12:38:21;97119.50;;;15.19;67.81
19259;BME280;9763;48.780;9.212;2023-04-01T12:41:59;97096.16;;;15.16;67.75
19259;BME280;9763;48.780;9.212;2023-04-01T12:45:31;97105.53;;;15.27;67.77
19259;BME280;9763;48.780;9.212;2023-04-01T12:49:22;97100.03;;;15.62;67.13
19259;BME280;9763;48.780;9.212;2023-04-01T12:53:13;97094.09;;;16.25;66.20
19259;BME280;9763;48.780;9.212;2023-04-01T12:56:56;97103.38;;;16.68;65.13
19259;BME280;9763;48.780;9.212;2023-04-01T13:05:18;97111.69;;;16.96;63.33
19259;BME280;9763;48.780;9.212;2023-04-01T13:08:52;97110.84;;;16.96;62.43
19259;BME280;9763;48.780;9.212;2023-04-01T13:12:38;97100.53;;;16.86;63.64
19259;BME280;9763;48.780;9.212;2023-04-01T13:16:11;97108.97;;;16.73;62.97
19259;BME280;9763;48.780;9.212;2023-04-01T13:19:46;97120.69;;;16.54;62.36
19259;BME280;9763;48.780;9.212;2023-04-01T13:23:52;97120.72;;;16.30;62.24
19259;BME280;9763;48.780;9.212;2023-04-01T13:27:26;97121.91;;;16.19;62.22
19259;BME280;9763;48.780;9.212;2023-04-01T13:31:00;97124.88;;;16.16;62.63
19259;BME280;9763;48.780;9.212;2023-04-01T13:34:39;97130.44;;;16.21;62.66
19259;BME280;9763;48.780;9.212;2023-04-01T13:42:27;97124.84;;;16.33;63.47
19259;BME280;9763;48.780;9.212;2023-04-01T13:46:36;97130.59;;;16.44;60.54
19259;BME280;9763;48.780;9.212;2023-04-01T13:50:34;97133.38;;;16.43;61.15
19259;BME280;9763;48.780;9.212;2023-04-01T13:58:38;97150.03;;;16.35;60.83
19259;BME280;9763;48.780;9.212;2023-04-01T14:02:27;97145.59;;;16.36;61.08
19259;BME280;9763;48.780;9.212;2023-04-01T14:06:05;97144.78;;;16.27;61.36
19259;BME280;9763;48.780;9.212;2023-04-01T14:10:03;97163.84;;;16.37;61.53
19259;BME280;9763;48.780;9.212;2023-04-01T14:13:41;97142.81;;;16.29;60.36
19259;BME280;9763;48.780;9.212;2023-04-01T14:17:24;97145.09;;;16.24;60.01
19259;BME280;9763;48.780;9.212;2023-04-01T14:21:30;97149.56;;;16.15;60.79
19259;BME280;9763;48.780;9.212;2023-04-01T14:25:27;97158.63;;;16.05;61.50
19259;BME280;9763;48.780;9.212;2023-04-01T14:29:16;97167.16;;;15.91;61.50
19259;BME280;9763;48.780;9.212;2023-04-01T14:32:49;97162.53;;;15.76;60.99
19259;BME280;9763;48.780;9.212;2023-04-01T14:40:28;97172.34;;;15.58;63.12
19259;BME280;9763;48.780;9.212;2023-04-01T14:44:33;97173.28;;;15.41;61.56
19259;BME280;9763;48.780;9.212;2023-04-01T14:48:17;97179.97;;;15.19;63.55
19259;BME280;9763;48.780;9.212;2023-04-01T14:51:46;97179.38;;;14.99;64.04
19259;BME280;9763;48.780;9.212;2023-04-01T14:55:31;97181.66;;;14.94;64.51
19259;BME280;9763;48.780;9.212;2023-04-01T14:58:58;97185.28;;;15.01;65.15
19259;BME280;9763;48.780;9.212;2023-04-01T15:02:50;97182.91;;;15.16;64.38
19259;BME280;9763;48.780;9.212;2023-04-01T15:10:53;97185.69;;;15.23;64.72
19259;BME280;9763;48.780;9.212;2023-04-01T15:14:49;97189.81;;;15.25;64.51
19259;BME280;9763;48.780;9.212;2023-04-01T15:18:34;97187.16;;;15.17;64.60
19259;BME280;9763;48.780;9.212;2023-04-01T15:22:35;97192.59;;;15.24;65.10
19259;BME280;9763;48.780;9.212;2023-04-01T15:26:24;97201.16;;;15.26;64.44
19259;BME280;9763;48.780;9.212;2023-04-01T15:30:31;97203.94;;;15.24;64.09
19259;BME280;9763;48.780;9.212;2023-04-01T15:34:26;97207.72;;;15.22;64.74
19259;BME280;9763;48.780;9.212;2023-04-01T15:37:55;97209.84;;;15.18;64.22
19259;BME280;9763;48.780;9.212;2023-04-01T15:41:26;97209.34;;;15.14;65.00
19259;BME280;9763;48.780;9.212;2023-04-01T15:45:03;97218.34;;;15.12;64.32
19259;BME280;9763;48.780;9.212;2023-04-01T15:48:48;97222.09;;;15.09;65.29
19259;BME280;9763;48.780;9.212;2023-04-01T15:52:22;97221.94;;;15.03;64.60
19259;BME280;9763;48.780;9.212;2023-04-01T15:55:56;97223.88;;;15.01;65.03
19259;BME280;9763;48.780;9.212;2023-04-01T16:03:31;97219.19;;;14.87;64.35
19259;BME280;9763;48.780;9.212;2023-04-01T16:07:10;97219.47;;;14.75;63.96
19259;BME280;9763;48.780;9.212;2023-04-01T16:11:08;97238.22;;;14.81;63.99
19259;BME280;9763;48.780;9.212;2023-04-01T16:14:45;97229.81;;;14.77;63.99
19259;BME280;9763;48.780;9.212;2023-04-01T16:18:40;97229.31;;;14.73;63.08
19259;BME280;9763;48.780;9.212;2023-04-01T16:22:15;97242.63;;;14.72;64.03
19259;BME280;9763;48.780;9.212;2023-04-01T16:25:45;97236.38;;;14.73;64.89
19259;BME280;9763;48.780;9.212;2023-04-01T16:29:26;97237.66;;;14.69;63.82
19259;BME280;9763;48.780;9.212;2023-04-01T16:32:57;97237.25;;;14.56;64.33
19259;BME280;9763;48.780;9.212;2023-04-01T16:36:33;97252.69;;;14.59;64.30
19259;BME280;9763;48.780;9.212;2023-04-01T16:40:13;97250.38;;;14.56;64.50
19259;BME280;9763;48.780;9.212;2023-04-01T16:43:45;97245.25;;;14.54;64.82
19259;BME280;9763;48.780;9.212;2023-04-01T16:47:14;97248.19;;;14.51;65.11
19259;BME280;9763;48.780;9.212;2023-04-01T16:50:52;97256.22;;;14.50;65.07
19259;BME280;9763;48.780;9.212;2023-04-01T16:54:30;97264.75;;;14.52;65.89
19259;BME280;9763;48.780;9.212;2023-04-01T16:57:57;97272.19;;;14.56;66.18
19259;BME280;9763;48.780;9.212;2023-04-01T17:01:29;97266.50;;;14.61;66.20
19259;BME280;9763;48.780;9.212;2023-04-01T17:05:03;97263.53;;;14.64;65.94
19259;BME280;9763;48.780;9.212;2023-04-01T17:08:48;97267.28;;;14.61;65.48
19259;BME280;9763;48.780;9.212;2023-04-01T17:12:24;97259.59;;;14.60;65.65
19259;BME280;9763;48.780;9.212;2023-04-01T17:15:59;97259.22;;;14.55;65.98
19259;BME280;9763;48.780;9.212;2023-04-01T17:19:45;97257.41;;;14.55;66.34
19259;BME280;9763;48.780;9.212;2023-04-01T17:23:20;97264.75;;;14.52;65.82
19259;BME280;9763;48.780;9.212;2023-04-01T17:26:53;97269.34;;;14.50;66.40
19259;BME280;9763;48.780;9.212;2023-04-01T17:30:29;97271.31;;;14.48;66.24
19259;BME280;9763;48.780;9.212;2023-04-01T17:34:30;97281.00;;;14.47;66.87
19259;BME280;9763;48.780;9.212;2023-04-01T17:38:12;97282.41;;;14.41;66.78
19259;BME280;9763;48.780;9.212;2023-04-01T17:41:48;97293.19;;;14.38;67.23
19259;BME280;9763;48.780;9.212;2023-04-01T17:45:24;97288.06;;;14.37;66.97
19259;BME280;9763;48.780;9.212;2023-04-01T17:49:00;97306.03;;;14.41;67.17
19259;BME280;9763;48.780;9.212;2023-04-01T17:52:33;97304.25;;;14.42;66.51
19259;BME280;9763;48.780;9.212;2023-04-01T17:56:13;97312.94;;;14.43;66.86
19259;BME280;9763;48.780;9.212;2023-04-01T17:59:47;97319.16;;;14.41;67.17
19259;BME280;9763;48.780;9.212;2023-04-01T18:03:24;97325.66;;;14.37;67.52
19259;BME280;9763;48.780;9.212;2023-04-01T18:07:13;97333.03;;;14.34;67.69
19259;BME280;9763;48.780;9.212;2023-04-01T18:10:57;97331.50;;;14.31;67.81
19259;BME280;9763;48.780;9.212;2023-04-01T18:14:40;97354.31;;;14.31;67.17
19259;BME280;9763;48.780;9.212;2023-04-01T18:18:31;97353.28;;;14.24;67.93
19259;BME280;9763;48.780;9.212;2023-04-01T18:22:09;97360.75;;;14.19;67.56
19259;BME280;9763;48.780;9.212;2023-04-01T18:25:37;97354.97;;;14.15;67.86
19259;BME280;9763;48.780;9.212;2023-04-01T18:29:17;97374.16;;;14.16;68.04
19259;BME280;9763;48.780;9.212;2023-04-01T18:32:52;97365.78;;;14.12;67.67
19259;BME280;9763;48.780;9.212;2023-04-01T18:36:26;97369.41;;;14.01;67.91
19259;BME280;9763;48.780;9.212;2023-04-01T18:40:11;97372.53;;;13.87;68.41
19259;BME280;9763;48.780;9.212;2023-04-01T18:43:51;97378.34;;;13.81;68.39
19259;BME280;9763;48.780;9.212;2023-04-01T18:47:30;97376.31;;;13.75;68.88
19259;BME280;9763;48.780;9.212;2023-04-01T18:51:11;97386.69;;;13.67;68.22
19259;BME280;9763;48.780;9.212;2023-04-01T18:54:45;97389.50;;;13.56;68.67
19259;BME280;9763;48.780;9.212;2023-04-01T18:58:23;97388.16;;;13.42;68.11
19259;BME280;9763;48.780;9.212;2023-04-01T19:02:00;97394.25;;;13.33;68.17
19259;BME280;9763;48.780;9.212;2023-04-01T19:05:32;97392.75;;;13.21;68.37
19259;BME280;9763;48.780;9.212;2023-04-01T19:09:16;97401.72;;;13.09;67.81
19259;BME280;9763;48.780;9.212;2023-04-01T19:12:47;97402.00;;;12.96;67.93
19259;BME280;9763;48.780;9.212;2023-04-01T19:16:30;97402.16;;;12.85;68.16
19259;BME280;9763;48.780;9.212;2023-04-01T19:20:09;97405.75;;;12.74;67.69
19259;BME280;9763;48.780;9.212;2023-04-01T19:24:36;97395.53;;;12.61;68.16
19259;BME280;9763;48.780;9.212;2023-04-01T19:28:28;97408.63;;;12.52;68.28
19259;BME280;9763;48.780;9.212;2023-04-01T19:32:10;97412.59;;;12.46;68.78
19259;BME280;9763;48.780;9.212;2023-04-01T19:35:44;97411.38;;;12.41;68.74
19259;BME280;9763;48.780;9.212;2023-04-01T19:39:30;97408.88;;;12.39;69.00
19259;BME280;9763;48.780;9.212;2023-04-01T19:43:04;97410.09;;;12.35;69.00
19259;BME280;9763;48.780;9.212;2023-04-01T19:46:36;97413.84;;;12.42;69.38
19259;BME280;9763;48.780;9.212;2023-04-01T19:50:19;97414.94;;;12.49;69.31
19259;BME280;9763;48.780;9.212;2023-04-01T19:53:54;97419.78;;;12.54;69.34
19259;BME280;9763;48.780;9.212;2023-04-01T19:57:32;97421.44;;;12.55;68.79
19259;BME280;9763;48.780;9.212;2023-04-01T20:01:03;97420.19;;;12.49;69.56
19259;BME280;9763;48.780;9.212;2023-04-01T20:04:33;97446.50;;;12.57;69.35
19259;BME280;9763;48.780;9.212;2023-04-01T20:08:10;97455.63;;;12.63;69.40
19259;BME280;9763;48.780;9.212;2023-04-01T20:11:51;97439.34;;;12.69;69.34
19259;BME280;9763;48.780;9.212;2023-04-01T20:15:32;97447.75;;;12.73;68.96
19259;BME280;9763;48.780;9.212;2023-04-01T20:19:02;97449.16;;;12.77;68.69
19259;BME280;9763;48.780;9.212;2023-04-01T20:22:50;97445.44;;;12.79;69.40
19259;BME280;9763;48.780;9.212;2023-04-01T20:26:22;97450.50;;;12.81;69.62
19259;BME280;9763;48.780;9.212;2023-04-01T20:30:12;97453.00;;;12.82;68.87